Time;durP1;ratioP1;P1;durP2;ratioP2;P2;SDS_P1;SDS_P2;PMS_P1;PMS_P2;Temp;Humidity;BMP_temperature;BMP_pressure;BME280_temperature;BME280_humidity;BME280_pressure;Samples;Min_cycle;Max_cycle;Signal;HPM_P1;HPM_P2
2023/09/22 00:00:59;;;;;;;1.00;1.00;;;22.60;75.00;;;;;;5071490;28;43341;-68
2023/09/22 00:03:29;;;;;;;1.00;1.00;;;22.60;75.30;;;;;;5071251;28;43698;-68
2023/09/22 00:05:57;;;;;;;0.90;0.90;;;22.50;75.40;;;;;;5071752;28;43541;-67
2023/09/22 00:08:26;;;;;;;1.00;1.00;;;22.50;75.40;;;;;;5072302;28;43928;-68
2023/09/22 00:10:55;;;;;;;1.00;1.00;;;22.40;75.60;;;;;;5068305;28;43460;-67
2023/09/22 00:13:23;;;;;;;0.90;0.90;;;22.40;75.90;;;;;;5071860;28;43894;-68
2023/09/22 00:15:51;;;;;;;0.90;0.90;;;22.40;76.20;;;;;;5071290;28;43608;-67
2023/09/22 00:18:19;;;;;;;0.90;0.90;;;22.40;76.20;;;;;;5071264;28;43909;-68
2023/09/22 00:20:47;;;;;;;0.90;0.90;;;22.30;76.10;;;;;;5071950;28;43418;-68
2023/09/22 00:23:15;;;;;;;1.00;1.00;;;22.30;76.20;;;;;;5071171;28;43456;-68
2023/09/22 00:25:45;;;;;;;0.90;0.90;;;22.30;76.40;;;;;;5071781;28;43527;-67
2023/09/22 00:28:14;;;;;;;0.90;0.90;;;22.30;76.60;;;;;;5071438;28;43867;-68
2023/09/22 00:30:42;;;;;;;0.83;0.83;;;22.30;76.50;;;;;;5049512;28;43961;-67
2023/09/22 00:33:11;;;;;;;0.90;0.90;;;22.50;76.30;;;;;;5057881;28;43996;-67
2023/09/22 00:35:40;;;;;;;0.90;0.90;;;22.60;75.80;;;;;;5066217;28;43750;-67
2023/09/22 00:38:08;;;;;;;0.90;0.90;;;22.70;75.30;;;;;;5071132;28;43608;-68
2023/09/22 00:40:36;;;;;;;0.90;0.90;;;22.70;75.20;;;;;;5066302;28;43390;-69
2023/09/22 00:43:10;;;;;;;1.03;1.03;;;22.70;75.20;;;;;;5063549;28;43358;-67
2023/09/22 00:45:42;;;;;;;0.90;0.90;;;22.60;75.40;;;;;;5066253;28;43436;-68
2023/09/22 00:48:10;;;;;;;0.90;0.90;;;22.50;75.70;;;;;;5062571;28;44911;-68
2023/09/22 00:50:38;;;;;;;0.97;0.97;;;22.50;75.80;;;;;;5067778;28;43392;-68
2023/09/22 00:53:06;;;;;;;0.90;0.90;;;22.50;75.90;;;;;;5070933;28;43964;-68
2023/09/22 00:55:34;;;;;;;1.07;1.07;;;22.50;76.10;;;;;;5057674;28;43546;-68
2023/09/22 00:58:02;;;;;;;0.80;0.80;;;22.40;76.40;;;;;;5061861;28;45383;-67
2023/09/22 01:00:32;;;;;;;1.00;1.00;;;22.40;76.60;;;;;;5063642;28;44893;-67
2023/09/22 01:03:00;;;;;;;0.90;0.90;;;22.40;76.60;;;;;;5063978;22;44814;-77
2023/09/22 01:05:28;;;;;;;1.00;1.00;;;22.40;76.60;;;;;;5022810;28;43622;-75
2023/09/22 01:07:56;;;;;;;0.80;0.80;;;22.30;76.60;;;;;;5030077;28;43617;-76
2023/09/22 01:10:24;;;;;;;0.90;0.90;;;22.30;76.90;;;;;;5011742;28;44842;-76
2023/09/22 01:12:54;;;;;;;0.80;0.80;;;22.30;76.80;;;;;;5011083;28;43917;-78
2023/09/22 01:15:22;;;;;;;0.90;0.90;;;22.40;76.60;;;;;;5011739;28;43547;-76
2023/09/22 01:17:51;;;;;;;0.90;0.90;;;22.60;76.00;;;;;;5011532;28;46039;-75
2023/09/22 01:20:20;;;;;;;0.90;0.90;;;22.70;75.60;;;;;;5011501;28;45172;-75
2023/09/22 01:22:49;;;;;;;1.00;1.00;;;22.70;75.30;;;;;;5011437;28;43476;-75
2023/09/22 01:25:19;;;;;;;0.90;0.90;;;22.70;75.30;;;;;;5011475;28;43595;-75
2023/09/22 01:27:47;;;;;;;1.00;1.00;;;22.60;75.40;;;;;;5011083;28;46084;-76
2023/09/22 01:30:15;;;;;;;0.90;0.90;;;22.60;75.80;;;;;;5011147;28;45022;-75
2023/09/22 01:32:43;;;;;;;0.97;0.97;;;22.50;75.80;;;;;;5011630;28;43496;-76
2023/09/22 01:35:12;;;;;;;1.07;1.07;;;22.50;75.90;;;;;;5011910;28;43557;-75
2023/09/22 01:37:45;;;;;;;0.90;0.90;;;22.40;76.00;;;;;;5010428;28;45572;-77
2023/09/22 01:40:16;;;;;;;1.30;1.20;;;22.40;76.30;;;;;;5010933;28;44831;-75
2023/09/22 01:42:45;;;;;;;0.90;0.90;;;22.30;76.40;;;;;;5044531;28;43549;-75
2023/09/22 01:45:13;;;;;;;1.07;1.07;;;22.30;76.30;;;;;;5029378;28;43447;-77
2023/09/22 01:47:41;;;;;;;1.00;1.00;;;22.30;76.40;;;;;;5028983;28;43912;-77
2023/09/22 01:50:09;;;;;;;0.90;0.90;;;22.30;76.50;;;;;;5010851;28;45102;-75
2023/09/22 01:52:38;;;;;;;1.03;1.03;;;22.30;76.60;;;;;;5010903;28;43515;-76
2023/09/22 01:55:06;;;;;;;1.27;1.00;;;22.30;76.40;;;;;;5010918;28;43522;-74
2023/09/22 01:57:35;;;;;;;0.80;0.80;;;22.30;76.40;;;;;;5010885;28;46014;-75
2023/09/22 02:00:10;;;;;;;0.90;0.90;;;22.50;76.00;;;;;;5010956;28;44006;-75
2023/09/22 02:02:42;;;;;;;1.00;1.00;;;22.60;75.40;;;;;;5042503;28;44104;-74
2023/09/22 02:05:12;;;;;;;0.93;0.93;;;22.70;75.10;;;;;;5044204;28;43587;-74
2023/09/22 02:07:40;;;;;;;1.00;1.00;;;22.70;75.00;;;;;;5028975;28;43602;-76
2023/09/22 02:10:10;;;;;;;0.93;0.93;;;22.60;75.00;;;;;;5010306;28;43445;-73
2023/09/22 02:12:40;;;;;;;0.83;0.83;;;22.50;75.40;;;;;;5029175;28;43536;-71
2023/09/22 02:15:09;;;;;;;1.00;1.00;;;22.50;75.70;;;;;;5009113;28;43543;-73
2023/09/22 02:17:37;;;;;;;0.90;0.90;;;22.50;75.80;;;;;;5026096;28;45818;-73
2023/09/22 02:20:17;;;;;;;0.97;0.97;;;22.40;75.80;;;;;;5021364;28;44902;-73
2023/09/22 02:22:45;;;;;;;1.00;1.00;;;22.40;76.10;;;;;;5007190;28;43534;-73
2023/09/22 02:25:15;;;;;;;0.90;0.90;;;22.30;76.20;;;;;;5010814;28;43423;-73
2023/09/22 02:27:44;;;;;;;0.80;0.80;;;22.30;76.30;;;;;;5028360;28;43882;-72
2023/09/22 02:30:14;;;;;;;1.00;1.00;;;22.30;76.30;;;;;;5029406;28;43425;-73
2023/09/22 02:32:43;;;;;;;1.00;1.00;;;22.30;76.40;;;;;;5011144;28;43397;-71
2023/09/22 02:35:13;;;;;;;0.90;0.90;;;22.30;76.60;;;;;;5012140;28;43497;-71
2023/09/22 02:37:41;;;;;;;0.90;0.90;;;22.20;76.70;;;;;;5011205;28;45635;-71
2023/09/22 02:40:12;;;;;;;0.70;0.70;;;22.20;76.60;;;;;;5014246;28;45489;-71
2023/09/22 02:42:41;;;;;;;1.00;1.00;;;22.20;76.70;;;;;;5029471;28;43992;-72
2023/09/22 02:45:11;;;;;;;1.07;1.07;;;22.20;76.80;;;;;;5042176;28;43575;-71
2023/09/22 02:47:40;;;;;;;0.80;0.80;;;22.20;76.90;;;;;;5011003;28;45787;-71
2023/09/22 02:50:10;;;;;;;0.80;0.80;;;22.20;76.80;;;;;;5044458;28;45023;-71
2023/09/22 02:52:39;;;;;;;0.90;0.90;;;22.30;76.60;;;;;;5011365;28;43540;-71
2023/09/22 02:55:09;;;;;;;0.80;0.80;;;22.40;76.20;;;;;;5029352;28;43441;-71
2023/09/22 02:57:38;;;;;;;0.80;0.80;;;22.60;75.70;;;;;;5008124;28;45657;-71
2023/09/22 03:00:11;;;;;;;0.90;0.90;;;22.70;75.30;;;;;;5042530;28;44775;-72
2023/09/22 03:02:41;;;;;;;0.90;0.90;;;22.70;75.10;;;;;;5011141;28;43457;-71
2023/09/22 03:05:09;;;;;;;0.93;0.93;;;22.60;75.10;;;;;;4994516;28;43859;-70
2023/09/22 03:07:42;;;;;;;0.80;0.80;;;22.60;75.50;;;;;;5029975;28;43803;-72
2023/09/22 03:10:12;;;;;;;0.90;0.90;;;22.50;75.90;;;;;;5036844;28;43352;-70
2023/09/22 03:12:40;;;;;;;0.90;0.90;;;22.50;76.70;;;;;;5036930;28;43505;-72
2023/09/22 03:15:09;;;;;;;0.93;0.93;;;22.40;76.70;;;;;;5007542;28;43847;-70
2023/09/22 03:17:42;;;;;;;1.13;0.80;;;22.40;76.30;;;;;;5011870;28;45785;-71
2023/09/22 03:20:13;;;;;;;0.80;0.80;;;22.30;76.40;;;;;;5032783;28;43400;-73
2023/09/22 03:22:42;;;;;;;0.90;0.90;;;22.30;76.40;;;;;;5013395;28;43412;-74
2023/09/22 03:25:10;;;;;;;0.80;0.80;;;22.30;76.40;;;;;;5011720;28;43493;-72
2023/09/22 03:27:40;;;;;;;0.77;0.77;;;22.30;76.60;;;;;;5029779;28;45456;-72
2023/09/22 03:30:11;;;;;;;0.70;0.70;;;22.20;76.60;;;;;;5035708;28;43968;-71
2023/09/22 03:32:40;;;;;;;0.73;0.73;;;22.20;76.40;;;;;;5029521;28;43946;-73
2023/09/22 03:35:13;;;;;;;0.90;0.90;;;22.30;76.30;;;;;;5031209;28;43590;-71
2023/09/22 03:37:41;;;;;;;0.80;0.80;;;22.40;75.80;;;;;;5027532;28;46154;-73
2023/09/22 03:40:13;;;;;;;1.07;1.07;;;22.40;75.30;;;;;;5013428;28;45206;-73
2023/09/22 03:42:43;;;;;;;0.83;0.83;;;22.40;75.30;;;;;;5031804;28;43499;-73
2023/09/22 03:45:12;;;;;;;0.70;0.70;;;22.40;75.60;;;;;;5015523;28;43935;-73
2023/09/22 03:47:40;;;;;;;0.90;0.90;;;22.40;75.60;;;;;;5009780;28;45537;-73
2023/09/22 03:50:11;;;;;;;0.90;0.90;;;22.40;75.60;;;;;;5014174;28;44766;-72
2023/09/22 03:52:40;;;;;;;0.80;0.80;;;22.40;75.80;;;;;;5027230;28;43466;-74
2023/09/22 03:55:09;;;;;;;1.10;1.00;;;22.30;75.90;;;;;;5042886;28;43535;-73
2023/09/22 03:57:37;;;;;;;0.87;0.87;;;22.30;75.70;;;;;;5051085;28;45705;-73
2023/09/22 04:00:16;;;;;;;1.07;1.07;;;22.30;75.70;;;;;;5032749;28;43442;-71
2023/09/22 04:02:45;;;;;;;0.63;0.63;;;22.30;75.90;;;;;;5015634;28;43521;-73
2023/09/22 04:05:15;;;;;;;0.70;0.70;;;22.30;76.30;;;;;;5028272;28;43564;-73
2023/09/22 04:07:43;;;;;;;0.90;0.90;;;22.20;76.10;;;;;;5023664;28;44248;-73
2023/09/22 04:10:11;;;;;;;0.90;0.90;;;22.20;75.80;;;;;;5042156;28;45393;-72
2023/09/22 04:12:39;;;;;;;0.80;0.80;;;22.30;75.50;;;;;;5023129;28;43415;-73
2023/09/22 04:15:09;;;;;;;0.90;0.90;;;22.50;75.30;;;;;;5048983;28;43449;-72
2023/09/22 04:17:38;;;;;;;0.90;0.90;;;22.60;75.00;;;;;;5013187;28;44629;-73
2023/09/22 04:20:08;;;;;;;1.07;1.07;;;22.60;74.80;;;;;;5042079;28;43497;-73
2023/09/22 04:22:38;;;;;;;0.90;0.90;;;22.60;74.80;;;;;;5040954;28;43321;-74
2023/09/22 04:25:10;;;;;;;0.90;0.90;;;22.50;75.20;;;;;;5019910;28;43400;-73
2023/09/22 04:27:43;;;;;;;0.80;0.80;;;22.40;75.30;;;;;;5042334;28;43768;-73
2023/09/22 04:30:15;;;;;;;0.97;0.97;;;22.40;75.40;;;;;;5042774;28;43506;-71
2023/09/22 04:32:44;;;;;;;0.90;0.90;;;22.40;75.60;;;;;;5048874;28;43490;-73
2023/09/22 04:35:20;;;;;;;0.80;0.80;;;22.40;76.00;;;;;;5041371;28;43466;-71
2023/09/22 04:37:50;;;;;;;0.90;0.90;;;22.30;76.10;;;;;;5046988;28;43842;-71
2023/09/22 04:40:24;;;;;;;0.80;0.80;;;22.30;76.30;;;;;;5042165;28;44032;-72
2023/09/22 04:42:53;;;;;;;0.60;0.60;;;22.30;76.10;;;;;;5032964;28;43780;-73
2023/09/22 04:45:21;;;;;;;0.87;0.87;;;22.40;75.80;;;;;;5038447;28;43425;-71
2023/09/22 04:47:51;;;;;;;0.80;0.80;;;22.50;75.60;;;;;;5051690;28;43949;-71
2023/09/22 04:50:21;;;;;;;0.80;0.80;;;22.40;75.80;;;;;;5029612;28;44462;-71
2023/09/22 04:52:50;;;;;;;0.70;0.70;;;22.40;75.80;;;;;;5048698;28;43432;-71
2023/09/22 04:55:19;;;;;;;0.80;0.80;;;22.40;75.90;;;;;;5042010;28;44299;-71
2023/09/22 04:57:48;;;;;;;0.80;0.80;;;22.40;75.90;;;;;;5038261;28;43881;-71
2023/09/22 05:00:16;;;;;;;0.80;0.80;;;22.40;76.10;;;;;;5051129;28;43511;-72
2023/09/22 05:02:44;;;;;;;0.70;0.70;;;22.30;76.20;;;;;;5051135;28;43380;-70
2023/09/22 05:05:16;;;;;;;0.80;0.80;;;22.30;76.30;;;;;;5043792;28;43550;-70
2023/09/22 05:07:44;;;;;;;0.90;0.90;;;22.30;76.20;;;;;;5040831;28;43608;-71
2023/09/22 05:10:13;;;;;;;0.80;0.80;;;22.30;76.40;;;;;;5031328;28;43329;-71
2023/09/22 05:12:41;;;;;;;0.77;0.77;;;22.30;76.50;;;;;;5016264;28;43983;-70
2023/09/22 05:15:10;;;;;;;0.83;0.83;;;22.20;76.40;;;;;;5029560;28;43551;-70
2023/09/22 05:17:38;;;;;;;0.90;0.90;;;22.30;76.40;;;;;;5026521;28;43875;-73
2023/09/22 05:20:12;;;;;;;1.20;0.80;;;22.30;76.10;;;;;;5026201;28;43477;-70
2023/09/22 05:22:40;;;;;;;0.90;0.90;;;22.50;75.80;;;;;;5032727;28;43399;-71
2023/09/22 05:25:09;;;;;;;0.97;0.97;;;22.60;75.40;;;;;;5008884;28;43560;-70
2023/09/22 05:27:40;;;;;;;1.00;1.00;;;22.60;75.30;;;;;;5023118;28;43625;-70
2023/09/22 05:30:10;;;;;;;0.80;0.80;;;22.50;75.40;;;;;;5028762;28;43976;-71
2023/09/22 05:32:39;;;;;;;0.80;0.80;;;22.50;75.70;;;;;;5036444;28;43358;-70
2023/09/22 05:35:08;;;;;;;0.90;0.90;;;22.40;75.90;;;;;;5029658;28;43408;-70
2023/09/22 05:37:36;;;;;;;0.90;0.90;;;22.40;76.00;;;;;;5025926;28;43713;-70
2023/09/22 05:40:10;;;;;;;0.80;0.80;;;22.30;75.90;;;;;;5037843;28;43388;-76
2023/09/22 05:42:42;;;;;;;0.90;0.90;;;22.30;76.10;;;;;;5041502;28;43381;-76
2023/09/22 05:45:10;;;;;;;1.07;1.07;;;22.30;76.40;;;;;;5033709;28;43436;-76
2023/09/22 05:47:38;;;;;;;0.80;0.80;;;22.20;76.40;;;;;;5045643;28;43613;-77
2023/09/22 05:50:09;;;;;;;0.90;0.90;;;22.30;76.40;;;;;;5038652;28;43418;-76
2023/09/22 05:52:38;;;;;;;0.90;0.90;;;22.40;76.00;;;;;;5047008;28;43341;-76
2023/09/22 05:55:10;;;;;;;0.90;0.90;;;22.40;75.70;;;;;;5047420;28;43453;-77
2023/09/22 05:57:40;;;;;;;0.87;0.87;;;22.40;75.90;;;;;;5036279;28;43843;-77
2023/09/22 06:00:15;;;;;;;0.90;0.83;;;22.30;75.80;;;;;;5045433;28;43407;-76
2023/09/22 06:02:50;;;;;;;0.87;0.87;;;22.30;75.70;;;;;;5062501;28;43531;-77
2023/09/22 06:05:18;;;;;;;0.77;0.77;;;22.30;75.70;;;;;;5039561;28;43452;-75
2023/09/22 06:07:46;;;;;;;0.70;0.70;;;22.30;75.90;;;;;;5029846;28;46059;-76
2023/09/22 06:10:14;;;;;;;1.50;1.00;;;22.30;76.10;;;;;;5045769;28;45120;-76
2023/09/22 06:12:44;;;;;;;0.90;0.90;;;22.30;76.10;;;;;;5051711;28;43479;-75
2023/09/22 06:15:13;;;;;;;0.73;0.73;;;22.30;75.90;;;;;;5057072;28;43333;-76
2023/09/22 06:17:41;;;;;;;0.93;0.93;;;22.40;75.60;;;;;;5050562;28;43835;-76
2023/09/22 06:20:13;;;;;;;0.80;0.80;;;22.40;75.30;;;;;;5043002;28;44905;-76
2023/09/22 06:22:42;;;;;;;0.80;0.80;;;22.40;75.40;;;;;;5051178;28;43451;-76
2023/09/22 06:25:13;;;;;;;0.97;0.97;;;22.30;75.60;;;;;;5053551;28;43452;-76
2023/09/22 06:27:43;;;;;;;1.00;1.00;;;22.30;75.40;;;;;;5051062;28;43612;-76
2023/09/22 06:30:12;;;;;;;0.80;0.80;;;22.30;75.30;;;;;;5051716;28;43392;-76
2023/09/22 06:32:42;;;;;;;0.80;0.80;;;22.30;75.60;;;;;;5052708;28;43366;-77
2023/09/22 06:35:10;;;;;;;0.80;0.80;;;22.30;75.90;;;;;;5058558;28;43451;-77
2023/09/22 06:37:41;;;;;;;0.80;0.80;;;22.20;75.90;;;;;;5045139;28;45653;-76
2023/09/22 06:40:11;;;;;;;0.80;0.80;;;22.20;76.00;;;;;;5046542;28;43349;-76
2023/09/22 06:42:41;;;;;;;0.80;0.80;;;22.20;76.00;;;;;;5049769;28;43516;-77
2023/09/22 06:45:11;;;;;;;0.70;0.70;;;22.20;76.20;;;;;;5054960;28;43583;-77
2023/09/22 06:47:41;;;;;;;0.63;0.63;;;22.10;76.20;;;;;;5054070;28;43625;-76
2023/09/22 06:50:09;;;;;;;0.87;0.87;;;22.10;76.50;;;;;;5045067;28;43917;-70
2023/09/22 06:52:37;;;;;;;0.73;0.73;;;22.10;76.20;;;;;;5045782;28;43467;-70
2023/09/22 06:55:08;;;;;;;0.80;0.80;;;22.20;75.90;;;;;;5064750;28;43396;-70
2023/09/22 06:57:40;;;;;;;0.80;0.80;;;22.40;75.80;;;;;;5048440;28;43839;-70
2023/09/22 07:00:18;;;;;;;0.80;0.80;;;22.40;75.10;;;;;;5059500;28;44372;-70
2023/09/22 07:02:47;;;;;;;0.90;0.90;;;22.50;74.90;;;;;;5048373;28;43472;-71
2023/09/22 07:05:16;;;;;;;0.87;0.87;;;22.40;75.10;;;;;;5039229;28;43463;-70
2023/09/22 07:07:44;;;;;;;0.90;0.90;;;22.40;75.50;;;;;;5041149;28;43604;-70
2023/09/22 07:10:13;;;;;;;0.60;0.60;;;22.30;75.60;;;;;;5038834;28;43332;-70
2023/09/22 07:12:41;;;;;;;0.83;0.83;;;22.30;75.50;;;;;;5038889;28;43424;-71
2023/09/22 07:15:11;;;;;;;0.77;0.77;;;22.30;75.70;;;;;;5040474;28;43529;-71
2023/09/22 07:17:41;;;;;;;0.80;0.80;;;22.20;75.90;;;;;;5041183;28;43605;-71
2023/09/22 07:20:12;;;;;;;0.87;0.87;;;22.20;76.10;;;;;;5054603;28;44269;-70
2023/09/22 07:22:41;;;;;;;0.80;0.80;;;22.20;76.00;;;;;;5046109;28;43890;-71
2023/09/22 07:25:09;;;;;;;0.93;0.80;;;22.20;75.90;;;;;;5047698;28;43333;-70
2023/09/22 07:27:39;;;;;;;1.00;1.00;;;22.30;75.50;;;;;;5037033;28;45711;-72
2023/09/22 07:30:10;;;;;;;0.90;0.90;;;22.30;75.20;;;;;;5046728;28;44009;-70
2023/09/22 07:32:40;;;;;;;0.87;0.87;;;22.30;75.50;;;;;;5046433;28;43354;-71
2023/09/22 07:35:09;;;;;;;0.83;0.83;;;22.30;75.30;;;;;;5045568;28;43435;-70
2023/09/22 07:37:37;;;;;;;0.70;0.70;;;22.30;75.20;;;;;;5054748;28;43940;-70
2023/09/22 07:40:08;;;;;;;0.80;0.80;;;22.20;75.10;;;;;;5028801;28;44888;-70
2023/09/22 07:42:39;;;;;;;0.80;0.80;;;22.20;75.50;;;;;;5047450;28;43524;-70
2023/09/22 07:45:08;;;;;;;1.00;1.00;;;22.20;76.40;;;;;;5038511;28;43909;-71
2023/09/22 07:47:37;;;;;;;0.80;0.80;;;22.20;75.40;;;;;;5035743;28;45902;-71
2023/09/22 07:50:07;;;;;;;0.60;0.60;;;22.20;75.40;;;;;;5044492;28;43405;-71
2023/09/22 07:52:35;;;;;;;0.80;0.80;;;22.10;75.70;;;;;;5039907;28;43423;-73
2023/09/22 07:55:05;;;;;;;1.30;0.80;;;22.10;75.90;;;;;;5032421;28;43551;-71
2023/09/22 07:57:33;;;;;;;0.80;0.80;;;22.10;75.80;;;;;;5046581;28;44005;-71
2023/09/22 08:00:03;;;;;;;1.00;1.00;;;22.10;75.60;;;;;;5036327;28;44336;-73
2023/09/22 08:02:38;;;;;;;0.90;0.90;;;22.20;75.30;;;;;;5042487;28;43510;-73
2023/09/22 08:05:08;;;;;;;0.80;0.80;;;22.30;74.90;;;;;;5008954;28;43548;-73
2023/09/22 08:07:36;;;;;;;0.80;0.80;;;22.40;74.40;;;;;;5026917;28;43901;-73
2023/09/22 08:10:06;;;;;;;1.60;0.80;;;22.40;74.30;;;;;;5015934;28;43753;-73
2023/09/22 08:12:34;;;;;;;0.70;0.70;;;22.40;74.60;;;;;;5025854;28;43460;-73
2023/09/22 08:15:03;;;;;;;0.83;0.83;;;22.30;74.90;;;;;;5028050;28;43408;-73
2023/09/22 08:17:31;;;;;;;0.90;0.90;;;22.30;75.20;;;;;;5015053;28;46025;-73
2023/09/22 08:19:59;;;;;;;0.80;0.80;;;22.20;75.00;;;;;;5029020;28;43438;-73
2023/09/22 08:22:29;;;;;;;0.77;0.77;;;22.20;74.90;;;;;;5025877;28;43402;-73
2023/09/22 08:24:57;;;;;;;0.70;0.70;;;22.20;75.40;;;;;;5011673;28;43583;-73
2023/09/22 08:27:25;;;;;;;0.70;0.70;;;22.20;75.70;;;;;;5030393;28;43888;-74
2023/09/22 08:29:53;;;;;;;0.77;0.77;;;22.10;75.60;;;;;;5027926;28;43556;-73
2023/09/22 08:32:22;;;;;;;0.87;0.87;;;22.10;75.70;;;;;;5026393;28;43844;-73
2023/09/22 08:34:50;;;;;;;0.90;0.90;;;22.10;75.80;;;;;;5016120;28;43386;-73
2023/09/22 08:37:18;;;;;;;0.70;0.70;;;22.10;76.00;;;;;;5020594;28;44035;-73
2023/09/22 08:39:48;;;;;;;0.80;0.80;;;22.10;76.10;;;;;;5025302;28;43338;-73
2023/09/22 08:42:16;;;;;;;0.70;0.70;;;22.10;76.00;;;;;;5020985;28;43400;-73
2023/09/22 08:44:44;;;;;;;0.80;0.80;;;22.20;75.90;;;;;;5021206;28;43444;-73
2023/09/22 08:47:12;;;;;;;0.70;0.70;;;22.30;75.60;;;;;;5022971;28;43835;-74
2023/09/22 08:49:40;;;;;;;0.77;0.77;;;22.40;75.20;;;;;;5019807;28;44110;-74
2023/09/22 08:52:09;;;;;;;0.73;0.73;;;22.50;74.70;;;;;;5018911;28;43443;-73
2023/09/22 08:54:37;;;;;;;0.90;0.90;;;22.40;74.60;;;;;;5017727;28;43288;-75
2023/09/22 08:57:12;;;;;;;0.90;0.90;;;22.40;75.00;;;;;;5028183;28;44000;-70
2023/09/22 08:59:42;;;;;;;0.80;0.80;;;22.30;75.20;;;;;;5022780;28;43477;-70
2023/09/22 09:02:10;;;;;;;0.70;0.70;;;22.30;75.30;;;;;;5028148;28;43368;-70
2023/09/22 09:04:40;;;;;;;0.80;0.80;;;22.20;75.20;;;;;;5047844;28;43568;-70
2023/09/22 09:07:08;;;;;;;1.00;1.00;;;22.20;75.60;;;;;;5043504;28;43609;-70
2023/09/22 09:09:41;;;;;;;0.83;0.83;;;22.10;75.70;;;;;;5048390;28;43365;-70
2023/09/22 09:12:11;;;;;;;0.87;0.87;;;22.10;75.60;;;;;;5042758;28;43450;-69
2023/09/22 09:14:39;;;;;;;0.70;0.70;;;22.10;75.60;;;;;;5054600;28;43440;-68
2023/09/22 09:17:20;;;;;;;0.80;0.80;;;22.10;75.90;;;;;;5057930;28;43599;-72
2023/09/22 09:19:49;;;;;;;0.70;0.70;;;22.10;76.10;;;;;;5050607;28;43854;-72
2023/09/22 09:22:17;;;;;;;0.70;0.70;;;22.00;76.10;;;;;;5049855;28;43489;-74
2023/09/22 09:24:45;;;;;;;0.80;0.80;;;22.10;75.90;;;;;;5054264;28;43876;-73
2023/09/22 09:27:18;;;;;;;0.90;0.90;;;22.10;75.30;;;;;;5053647;28;43941;-71
2023/09/22 09:29:47;;;;;;;0.70;0.70;;;22.30;75.00;;;;;;5058031;28;43395;-72
2023/09/22 09:32:25;;;;;;;0.80;0.80;;;22.40;74.50;;;;;;5048797;28;43517;-71
2023/09/22 09:34:53;;;;;;;0.70;0.70;;;22.40;74.50;;;;;;5046551;28;43457;-73
2023/09/22 09:37:21;;;;;;;0.90;0.90;;;22.40;74.80;;;;;;5055735;28;43615;-71
2023/09/22 09:39:52;;;;;;;0.80;0.80;;;22.30;75.10;;;;;;5048563;28;43528;-74
2023/09/22 09:42:23;;;;;;;0.70;0.70;;;22.30;75.00;;;;;;5055590;28;43401;-73
2023/09/22 09:44:52;;;;;;;0.90;0.90;;;22.20;75.00;;;;;;5054358;28;43458;-71
2023/09/22 09:47:24;;;;;;;0.80;0.80;;;22.20;75.30;;;;;;5063825;28;46015;-72
2023/09/22 09:49:57;;;;;;;1.27;1.27;;;22.20;75.60;;;;;;5049705;28;43418;-72
2023/09/22 09:52:28;;;;;;;1.10;1.10;;;22.10;75.70;;;;;;5056430;28;43543;-73
2023/09/22 09:55:09;;;;;;;1.33;1.23;;;22.10;75.60;;;;;;5047388;28;43430;-71
2023/09/22 09:57:40;;;;;;;1.07;1.07;;;22.10;75.80;;;;;;5047540;28;43608;-71
2023/09/22 10:00:12;;;;;;;0.90;0.90;;;22.10;76.10;;;;;;5053372;28;43379;-73
2023/09/22 10:02:41;;;;;;;1.40;1.40;;;22.10;76.20;;;;;;5054271;28;43417;-76
2023/09/22 10:05:09;;;;;;;3.47;1.50;;;22.10;75.50;;;;;;5030837;28;43512;-72
2023/09/22 10:07:38;;;;;;;2.33;1.57;;;22.10;75.30;;;;;;5028780;28;43674;-73
2023/09/22 10:10:07;;;;;;;2.60;1.70;;;22.20;75.00;;;;;;5030080;28;43392;-73
2023/09/22 10:12:35;;;;;;;1.50;1.40;;;22.30;74.90;;;;;;5012539;28;43403;-73
2023/09/22 10:15:05;;;;;;;1.70;1.60;;;22.40;74.40;;;;;;5040978;28;43463;-73
2023/09/22 10:17:33;;;;;;;1.57;1.43;;;22.50;74.00;;;;;;5031396;28;43608;-73
2023/09/22 10:20:06;;;;;;;1.33;1.30;;;22.40;74.60;;;;;;5029817;28;43458;-73
2023/09/22 10:22:34;;;;;;;1.60;1.50;;;22.40;75.00;;;;;;5023955;28;43283;-73
2023/09/22 10:25:20;;;;;;;1.37;1.27;;;22.30;74.20;;;;;;5036287;28;43500;-73
2023/09/22 10:28:03;;;;;;;1.63;1.53;;;22.30;74.40;;;;;;5030271;28;43787;-72
2023/09/22 10:31:05;;;;;;;1.30;1.30;;;22.30;75.20;;;;;;5035961;28;43398;-75
2023/09/22 10:33:33;;;;;;;1.60;1.50;;;22.20;75.60;;;;;;4949267;28;43386;-75
2023/09/22 10:36:04;;;;;;;1.47;1.37;;;22.20;75.30;;;;;;5016179;28;43440;-76
2023/09/22 10:39:00;;;;;;;1.20;1.20;;;22.20;75.10;;;;;;5036611;28;43969;-75
2023/09/22 10:41:28;;;;;;;1.30;1.20;;;22.20;75.80;;;;;;5031627;28;44849;-70
2023/09/22 10:43:58;;;;;;;1.43;1.30;;;22.20;76.10;;;;;;5039874;28;43404;-71
2023/09/22 10:46:27;;;;;;;1.40;1.40;;;22.10;76.00;;;;;;5028416;28;43338;-71
2023/09/22 10:48:56;;;;;;;1.27;1.17;;;22.10;75.20;;;;;;5036926;28;43569;-71
2023/09/22 10:51:42;;;;;;;1.20;1.20;;;22.20;74.60;;;;;;5041828;28;43401;-71
2023/09/22 10:54:11;;;;;;;1.33;1.33;;;22.20;74.10;;;;;;5034881;28;43405;-71
2023/09/22 10:56:39;;;;;;;1.50;1.40;;;22.40;73.60;;;;;;5037954;28;43463;-71
2023/09/22 10:59:07;;;;;;;1.50;1.40;;;22.50;73.30;;;;;;5030559;28;43957;-71
2023/09/22 11:01:46;;;;;;;2.30;1.40;;;22.50;73.80;;;;;;5034839;28;43463;-71
2023/09/22 11:04:17;;;;;;;1.40;1.30;;;22.40;74.40;;;;;;5037826;28;43827;-71
2023/09/22 11:06:46;;;;;;;1.67;1.50;;;22.40;74.60;;;;;;5015359;28;44052;-71
2023/09/22 11:09:14;;;;;;;1.10;1.10;;;22.30;73.10;;;;;;5034496;28;43592;-71
2023/09/22 11:11:45;;;;;;;1.13;1.13;;;22.30;73.60;;;;;;5016146;28;43650;-73
2023/09/22 11:14:13;;;;;;;1.10;1.10;;;22.20;74.30;;;;;;5019015;28;43480;-71
2023/09/22 11:16:49;;;;;;;1.93;1.20;;;22.20;74.60;;;;;;5032433;28;43481;-72
2023/09/22 11:19:18;;;;;;;1.33;1.33;;;22.10;74.30;;;;;;5036108;28;43841;-72
2023/09/22 11:21:47;;;;;;;4.13;1.37;;;22.10;74.00;;;;;;5015923;28;44671;-71
2023/09/22 11:24:16;;;;;;;1.20;1.10;;;22.10;74.40;;;;;;5033825;28;43404;-71
2023/09/22 11:26:44;;;;;;;1.17;1.17;;;22.10;74.70;;;;;;5038732;28;43998;-72
2023/09/22 11:29:13;;;;;;;1.30;1.30;;;22.10;74.90;;;;;;5031932;28;43890;-71
2023/09/22 11:31:49;;;;;;;0.93;0.90;;;22.10;74.40;;;;;;5011408;28;44355;-71
2023/09/22 11:34:18;;;;;;;2.23;1.20;;;22.10;74.20;;;;;;5034693;28;43406;-71
2023/09/22 11:36:48;;;;;;;1.20;1.20;;;22.10;73.70;;;;;;5036220;28;43456;-71
2023/09/22 11:39:26;;;;;;;2.30;1.40;;;22.20;73.80;;;;;;5032884;28;43601;-76
2023/09/22 11:41:54;;;;;;;1.10;1.10;;;22.40;73.30;;;;;;5033045;28;43627;-76
2023/09/22 11:44:23;;;;;;;1.30;1.30;;;22.40;73.50;;;;;;5030984;28;43417;-76
2023/09/22 11:46:52;;;;;;;1.30;1.20;;;22.40;74.00;;;;;;5028992;28;43464;-75
2023/09/22 11:49:21;;;;;;;1.37;1.30;;;22.30;74.20;;;;;;5029535;28;43934;-73
2023/09/22 11:51:56;;;;;;;2.53;1.90;;;22.20;73.80;;;;;;5027018;28;43445;-73
2023/09/22 11:54:25;;;;;;;1.23;1.13;;;22.20;73.40;;;;;;5020404;28;43388;-72
2023/09/22 11:56:55;;;;;;;1.37;1.27;;;22.20;74.10;;;;;;5018966;28;43560;-72
2023/09/22 11:59:27;;;;;;;1.30;1.30;;;22.10;74.30;;;;;;5035246;28;45645;-72
2023/09/22 12:01:58;;;;;;;1.10;1.10;;;22.10;74.50;;;;;;5041241;28;44485;-72
2023/09/22 12:04:26;;;;;;;1.70;1.20;;;22.10;74.10;;;;;;5026864;28;43831;-73
2023/09/22 12:06:54;;;;;;;1.77;1.10;;;22.10;74.00;;;;;;5036109;28;43415;-74
2023/09/22 12:09:23;;;;;;;1.13;1.13;;;22.10;74.50;;;;;;5012332;28;45711;-72
2023/09/22 12:11:51;;;;;;;1.20;1.20;;;22.10;74.60;;;;;;5029966;28;43422;-72
2023/09/22 12:14:19;;;;;;;1.20;1.20;;;22.00;74.50;;;;;;5031509;28;43479;-73
2023/09/22 12:16:47;;;;;;;1.30;1.30;;;22.00;73.90;;;;;;5032383;28;43417;-71
2023/09/22 12:19:17;;;;;;;1.10;1.10;;;22.00;74.50;;;;;;5037858;28;43719;-72
2023/09/22 12:21:46;;;;;;;1.27;1.27;;;22.00;74.90;;;;;;5031925;28;43525;-72
2023/09/22 12:24:14;;;;;;;1.33;1.23;;;22.00;75.10;;;;;;5030627;28;43345;-71
2023/09/22 12:26:43;;;;;;;1.53;1.40;;;22.00;75.50;;;;;;5030523;28;43918;-71
2023/09/22 12:29:13;;;;;;;1.20;1.20;;;22.00;74.10;;;;;;5010974;28;45307;-71
2023/09/22 12:31:41;;;;;;;1.20;1.20;;;22.10;73.80;;;;;;5029973;28;43345;-71
2023/09/22 12:34:10;;;;;;;1.10;1.10;;;22.20;73.70;;;;;;5033355;28;43926;-71
2023/09/22 12:36:39;;;;;;;1.00;1.00;;;22.30;73.60;;;;;;5029750;28;43408;-71
2023/09/22 12:39:10;;;;;;;1.63;1.37;;;22.40;73.20;;;;;;5032748;28;44108;-71
2023/09/22 12:41:38;;;;;;;1.03;1.03;;;22.40;73.10;;;;;;5013042;28;44693;-71
2023/09/22 12:44:06;;;;;;;1.27;1.10;;;22.40;73.80;;;;;;5031649;28;43432;-71
2023/09/22 12:46:34;;;;;;;1.50;1.40;;;22.30;74.50;;;;;;5031502;28;43491;-72
2023/09/22 12:49:02;;;;;;;1.20;1.20;;;22.30;73.70;;;;;;5015342;28;45405;-71
2023/09/22 12:51:30;;;;;;;1.20;1.20;;;22.20;73.90;;;;;;5032909;28;43356;-72
2023/09/22 12:54:00;;;;;;;1.03;1.00;;;22.20;74.50;;;;;;5031885;28;43448;-71
2023/09/22 12:56:28;;;;;;;1.20;1.20;;;22.20;74.60;;;;;;5037844;28;43498;-71
2023/09/22 12:58:56;;;;;;;1.00;1.00;;;22.10;74.30;;;;;;5035224;28;43796;-74
2023/09/22 13:01:25;;;;;;;1.17;1.10;;;22.10;74.30;;;;;;5015423;28;44717;-76